sensor_id;sensor_type;location;lat;lon;timestamp;P1;durP1;ratioP1;P2;durP2;ratioP2
44588;SDS011;30298;52.562;13.414;2023-05-14T00:00:27;11.87;;;8.30;;
44588;SDS011;30298;52.562;13.414;2023-05-14T00:02:53;12.13;;;7.87;;
44588;SDS011;30298;52.562;13.414;2023-05-14T00:05:18;18.30;;;9.70;;
44588;SDS011;30298;52.562;13.414;2023-05-14T00:07:43;12.83;;;8.40;;
44588;SDS011;30298;52.562;13.414;2023-05-14T00:10:09;11.20;;;8.40;;
44588;SDS011;30298;52.562;13.414;2023-05-14T00:12:34;10.20;;;8.70;;
44588;SDS011;30298;52.562;13.414;2023-05-14T00:14:59;9.87;;;8.17;;
44588;SDS011;30298;52.562;13.414;2023-05-14T00:17:25;11.90;;;8.67;;
44588;SDS011;30298;52.562;13.414;2023-05-14T00:19:50;12.02;;;8.88;;
44588;SDS011;30298;52.562;13.414;2023-05-14T00:22:15;11.70;;;8.60;;
44588;SDS011;30298;52.562;13.414;2023-05-14T00:24:41;11.50;;;8.63;;
44588;SDS011;30298;52.562;13.414;2023-05-14T00:27:06;12.10;;;9.18;;
44588;SDS011;30298;52.562;13.414;2023-05-14T00:29:32;18.20;;;9.20;;
44588;SDS011;30298;52.562;13.414;2023-05-14T00:31:57;14.98;;;9.27;;
44588;SDS011;30298;52.562;13.414;2023-05-14T00:34:23;13.43;;;9.10;;
44588;SDS011;30298;52.562;13.414;2023-05-14T00:36:49;13.05;;;8.90;;
44588;SDS011;30298;52.562;13.414;2023-05-14T00:41:39;11.18;;;9.32;;
44588;SDS011;30298;52.562;13.414;2023-05-14T00:44:05;13.90;;;10.03;;
44588;SDS011;30298;52.562;13.414;2023-05-14T00:46:30;13.10;;;8.90;;
44588;SDS011;30298;52.562;13.414;2023-05-14T00:48:56;14.33;;;10.67;;
44588;SDS011;30298;52.562;13.414;2023-05-14T00:51:21;11.70;;;8.82;;
44588;SDS011;30298;52.562;13.414;2023-05-14T00:53:46;10.90;;;8.40;;
44588;SDS011;30298;52.562;13.414;2023-05-14T00:56:12;11.13;;;8.52;;
44588;SDS011;30298;52.562;13.414;2023-05-14T00:58:38;10.80;;;8.10;;
44588;SDS011;30298;52.562;13.414;2023-05-14T01:01:03;10.40;;;8.30;;
44588;SDS011;30298;52.562;13.414;2023-05-14T01:03:29;13.57;;;8.33;;
44588;SDS011;30298;52.562;13.414;2023-05-14T01:05:57;12.52;;;9.20;;
44588;SDS011;30298;52.562;13.414;2023-05-14T01:10:51;14.37;;;8.83;;
44588;SDS011;30298;52.562;13.414;2023-05-14T01:15:48;12.23;;;8.07;;
44588;SDS011;30298;52.562;13.414;2023-05-14T01:18:17;11.53;;;8.23;;
44588;SDS011;30298;52.562;13.414;2023-05-14T01:20:43;12.70;;;8.45;;
44588;SDS011;30298;52.562;13.414;2023-05-14T01:23:09;13.45;;;9.48;;
44588;SDS011;30298;52.562;13.414;2023-05-14T01:25:34;9.37;;;7.70;;
44588;SDS011;30298;52.562;13.414;2023-05-14T01:28:02;10.00;;;8.03;;
44588;SDS011;30298;52.562;13.414;2023-05-14T01:30:31;14.07;;;8.95;;
44588;SDS011;30298;52.562;13.414;2023-05-14T01:32:59;14.27;;;8.98;;
44588;SDS011;30298;52.562;13.414;2023-05-14T01:35:27;9.85;;;8.30;;
44588;SDS011;30298;52.562;13.414;2023-05-14T01:37:56;11.88;;;8.50;;
44588;SDS011;30298;52.562;13.414;2023-05-14T01:40:22;14.65;;;8.88;;
44588;SDS011;30298;52.562;13.414;2023-05-14T01:42:48;13.60;;;8.63;;
44588;SDS011;30298;52.562;13.414;2023-05-14T01:45:16;12.88;;;8.90;;
44588;SDS011;30298;52.562;13.414;2023-05-14T01:47:41;13.45;;;8.90;;
44588;SDS011;30298;52.562;13.414;2023-05-14T01:50:06;11.37;;;8.43;;
44588;SDS011;30298;52.562;13.414;2023-05-14T01:52:32;10.83;;;8.90;;
44588;SDS011;30298;52.562;13.414;2023-05-14T01:54:57;16.23;;;8.90;;
44588;SDS011;30298;52.562;13.414;2023-05-14T01:59:49;10.83;;;8.13;;
44588;SDS011;30298;52.562;13.414;2023-05-14T02:02:14;10.37;;;8.27;;
44588;SDS011;30298;52.562;13.414;2023-05-14T02:04:39;13.17;;;8.43;;
44588;SDS011;30298;52.562;13.414;2023-05-14T02:07:04;11.30;;;7.93;;
44588;SDS011;30298;52.562;13.414;2023-05-14T02:09:30;11.53;;;8.30;;
44588;SDS011;30298;52.562;13.414;2023-05-14T02:11:55;13.50;;;9.13;;
44588;SDS011;30298;52.562;13.414;2023-05-14T02:14:20;14.17;;;8.83;;
44588;SDS011;30298;52.562;13.414;2023-05-14T02:16:46;11.63;;;7.70;;
44588;SDS011;30298;52.562;13.414;2023-05-14T02:19:11;14.77;;;8.40;;
44588;SDS011;30298;52.562;13.414;2023-05-14T02:21:36;10.77;;;7.77;;
44588;SDS011;30298;52.562;13.414;2023-05-14T02:24:04;10.80;;;8.17;;
44588;SDS011;30298;52.562;13.414;2023-05-14T02:26:29;11.77;;;7.63;;
44588;SDS011;30298;52.562;13.414;2023-05-14T02:28:55;12.37;;;9.13;;
44588;SDS011;30298;52.562;13.414;2023-05-14T02:31:20;13.93;;;8.47;;
44588;SDS011;30298;52.562;13.414;2023-05-14T02:33:45;12.60;;;8.70;;
44588;SDS011;30298;52.562;13.414;2023-05-14T02:36:10;11.90;;;9.20;;
44588;SDS011;30298;52.562;13.414;2023-05-14T02:38:36;9.67;;;7.93;;
44588;SDS011;30298;52.562;13.414;2023-05-14T02:41:01;11.80;;;8.10;;
44588;SDS011;30298;52.562;13.414;2023-05-14T02:43:26;10.32;;;7.05;;
44588;SDS011;30298;52.562;13.414;2023-05-14T02:45:52;10.63;;;8.37;;
44588;SDS011;30298;52.562;13.414;2023-05-14T02:48:17;10.30;;;8.10;;
44588;SDS011;30298;52.562;13.414;2023-05-14T02:50:42;11.57;;;8.73;;
44588;SDS011;30298;52.562;13.414;2023-05-14T02:53:08;15.13;;;8.63;;
44588;SDS011;30298;52.562;13.414;2023-05-14T02:55:33;9.30;;;8.03;;
44588;SDS011;30298;52.562;13.414;2023-05-14T02:57:59;12.82;;;8.23;;
44588;SDS011;30298;52.562;13.414;2023-05-14T03:00:24;11.50;;;8.80;;
44588;SDS011;30298;52.562;13.414;2023-05-14T03:02:49;13.97;;;8.73;;
44588;SDS011;30298;52.562;13.414;2023-05-14T03:05:15;12.83;;;8.20;;
44588;SDS011;30298;52.562;13.414;2023-05-14T03:07:40;11.70;;;8.00;;
44588;SDS011;30298;52.562;13.414;2023-05-14T03:10:05;13.17;;;8.17;;
44588;SDS011;30298;52.562;13.414;2023-05-14T03:12:31;13.35;;;8.15;;
44588;SDS011;30298;52.562;13.414;2023-05-14T03:14:56;10.30;;;8.10;;
44588;SDS011;30298;52.562;13.414;2023-05-14T03:17:21;10.73;;;7.57;;
44588;SDS011;30298;52.562;13.414;2023-05-14T03:19:47;14.00;;;7.50;;
44588;SDS011;30298;52.562;13.414;2023-05-14T03:22:12;11.13;;;6.60;;
44588;SDS011;30298;52.562;13.414;2023-05-14T03:24:38;10.70;;;6.50;;
44588;SDS011;30298;52.562;13.414;2023-05-14T03:27:03;10.23;;;6.90;;
44588;SDS011;30298;52.562;13.414;2023-05-14T03:29:29;8.93;;;6.80;;
44588;SDS011;30298;52.562;13.414;2023-05-14T03:31:54;12.07;;;6.43;;
44588;SDS011;30298;52.562;13.414;2023-05-14T03:34:19;9.43;;;7.07;;
44588;SDS011;30298;52.562;13.414;2023-05-14T03:36:45;12.07;;;7.50;;
44588;SDS011;30298;52.562;13.414;2023-05-14T03:39:10;9.40;;;7.23;;
44588;SDS011;30298;52.562;13.414;2023-05-14T03:41:39;10.45;;;7.45;;
44588;SDS011;30298;52.562;13.414;2023-05-14T03:44:04;9.67;;;7.33;;
44588;SDS011;30298;52.562;13.414;2023-05-14T03:46:30;7.72;;;6.70;;
44588;SDS011;30298;52.562;13.414;2023-05-14T03:48:55;10.10;;;6.77;;
44588;SDS011;30298;52.562;13.414;2023-05-14T03:51:20;9.73;;;6.77;;
44588;SDS011;30298;52.562;13.414;2023-05-14T03:53:46;12.50;;;6.80;;
44588;SDS011;30298;52.562;13.414;2023-05-14T03:56:11;9.63;;;7.00;;
44588;SDS011;30298;52.562;13.414;2023-05-14T03:58:36;8.87;;;6.63;;
44588;SDS011;30298;52.562;13.414;2023-05-14T04:01:01;10.47;;;7.00;;
44588;SDS011;30298;52.562;13.414;2023-05-14T04:03:27;10.90;;;6.80;;
44588;SDS011;30298;52.562;13.414;2023-05-14T04:05:52;12.37;;;6.80;;
44588;SDS011;30298;52.562;13.414;2023-05-14T04:08:17;7.63;;;6.43;;
44588;SDS011;30298;52.562;13.414;2023-05-14T04:10:43;11.40;;;6.57;;
44588;SDS011;30298;52.562;13.414;2023-05-14T04:13:08;8.13;;;6.20;;
44588;SDS011;30298;52.562;13.414;2023-05-14T04:15:33;12.70;;;6.30;;
44588;SDS011;30298;52.562;13.414;2023-05-14T04:20:25;10.65;;;6.32;;
44588;SDS011;30298;52.562;13.414;2023-05-14T04:22:50;10.80;;;6.50;;
44588;SDS011;30298;52.562;13.414;2023-05-14T04:25:15;9.53;;;6.57;;
44588;SDS011;30298;52.562;13.414;2023-05-14T04:27:42;7.93;;;6.30;;
44588;SDS011;30298;52.562;13.414;2023-05-14T04:30:08;9.93;;;6.77;;
44588;SDS011;30298;52.562;13.414;2023-05-14T04:32:33;9.40;;;6.70;;
44588;SDS011;30298;52.562;13.414;2023-05-14T04:34:59;10.85;;;6.65;;
44588;SDS011;30298;52.562;13.414;2023-05-14T04:37:25;8.35;;;6.45;;
44588;SDS011;30298;52.562;13.414;2023-05-14T04:39:50;12.27;;;6.70;;
44588;SDS011;30298;52.562;13.414;2023-05-14T04:42:15;9.80;;;6.50;;
44588;SDS011;30298;52.562;13.414;2023-05-14T04:44:40;9.83;;;7.03;;
44588;SDS011;30298;52.562;13.414;2023-05-14T04:47:06;10.53;;;6.67;;
44588;SDS011;30298;52.562;13.414;2023-05-14T04:49:31;10.40;;;7.55;;
44588;SDS011;30298;52.562;13.414;2023-05-14T04:51:57;11.85;;;6.78;;
44588;SDS011;30298;52.562;13.414;2023-05-14T04:54:22;9.63;;;6.75;;
44588;SDS011;30298;52.562;13.414;2023-05-14T04:56:48;12.00;;;7.00;;
44588;SDS011;30298;52.562;13.414;2023-05-14T04:59:22;9.73;;;6.78;;
44588;SDS011;30298;52.562;13.414;2023-05-14T05:01:48;12.57;;;6.82;;
44588;SDS011;30298;52.562;13.414;2023-05-14T05:04:19;9.50;;;6.60;;
44588;SDS011;30298;52.562;13.414;2023-05-14T05:09:40;11.00;;;7.45;;
44588;SDS011;30298;52.562;13.414;2023-05-14T05:12:05;8.73;;;6.27;;
44588;SDS011;30298;52.562;13.414;2023-05-14T05:14:30;11.73;;;6.50;;
44588;SDS011;30298;52.562;13.414;2023-05-14T05:17:03;16.37;;;6.47;;
44588;SDS011;30298;52.562;13.414;2023-05-14T05:19:29;11.85;;;8.43;;
44588;SDS011;30298;52.562;13.414;2023-05-14T05:21:54;9.10;;;7.10;;
44588;SDS011;30298;52.562;13.414;2023-05-14T05:24:20;7.72;;;6.13;;
44588;SDS011;30298;52.562;13.414;2023-05-14T05:26:45;12.03;;;6.87;;
44588;SDS011;30298;52.562;13.414;2023-05-14T05:29:10;7.93;;;5.97;;
44588;SDS011;30298;52.562;13.414;2023-05-14T05:31:38;11.23;;;6.43;;
44588;SDS011;30298;52.562;13.414;2023-05-14T05:34:07;8.82;;;6.53;;
44588;SDS011;30298;52.562;13.414;2023-05-14T05:36:32;12.30;;;6.63;;
44588;SDS011;30298;52.562;13.414;2023-05-14T05:38:57;9.57;;;6.60;;
44588;SDS011;30298;52.562;13.414;2023-05-14T05:41:23;8.50;;;6.23;;
44588;SDS011;30298;52.562;13.414;2023-05-14T05:43:48;12.47;;;6.43;;
44588;SDS011;30298;52.562;13.414;2023-05-14T05:46:13;11.83;;;6.53;;
44588;SDS011;30298;52.562;13.414;2023-05-14T05:48:38;8.40;;;6.67;;
44588;SDS011;30298;52.562;13.414;2023-05-14T05:51:04;11.33;;;5.63;;
44588;SDS011;30298;52.562;13.414;2023-05-14T05:53:29;13.20;;;6.65;;
44588;SDS011;30298;52.562;13.414;2023-05-14T05:55:54;10.63;;;6.37;;
44588;SDS011;30298;52.562;13.414;2023-05-14T05:58:20;8.17;;;6.20;;
44588;SDS011;30298;52.562;13.414;2023-05-14T06:00:45;8.55;;;6.15;;
44588;SDS011;30298;52.562;13.414;2023-05-14T06:03:11;10.30;;;6.37;;
44588;SDS011;30298;52.562;13.414;2023-05-14T06:05:37;8.32;;;6.22;;
44588;SDS011;30298;52.562;13.414;2023-05-14T06:08:02;8.73;;;6.00;;
44588;SDS011;30298;52.562;13.414;2023-05-14T06:10:28;7.20;;;5.35;;
44588;SDS011;30298;52.562;13.414;2023-05-14T06:12:53;10.00;;;5.75;;
44588;SDS011;30298;52.562;13.414;2023-05-14T06:15:19;13.00;;;4.80;;
44588;SDS011;30298;52.562;13.414;2023-05-14T06:17:44;18.07;;;6.77;;
44588;SDS011;30298;52.562;13.414;2023-05-14T06:20:10;9.63;;;5.57;;
44588;SDS011;30298;52.562;13.414;2023-05-14T06:22:35;10.00;;;5.03;;
44588;SDS011;30298;52.562;13.414;2023-05-14T06:25:02;8.00;;;5.40;;
44588;SDS011;30298;52.562;13.414;2023-05-14T06:27:27;11.55;;;4.95;;
44588;SDS011;30298;52.562;13.414;2023-05-14T06:29:52;11.63;;;6.73;;
44588;SDS011;30298;52.562;13.414;2023-05-14T06:32:18;9.67;;;5.50;;
44588;SDS011;30298;52.562;13.414;2023-05-14T06:35:01;10.53;;;6.17;;
44588;SDS011;30298;52.562;13.414;2023-05-14T06:37:34;9.10;;;5.70;;
44588;SDS011;30298;52.562;13.414;2023-05-14T06:40:00;12.40;;;5.68;;
44588;SDS011;30298;52.562;13.414;2023-05-14T06:42:25;6.57;;;5.43;;
44588;SDS011;30298;52.562;13.414;2023-05-14T06:44:50;11.87;;;5.70;;
44588;SDS011;30298;52.562;13.414;2023-05-14T06:47:16;8.90;;;4.97;;
44588;SDS011;30298;52.562;13.414;2023-05-14T06:49:41;12.37;;;5.13;;
44588;SDS011;30298;52.562;13.414;2023-05-14T06:52:06;11.10;;;4.93;;
44588;SDS011;30298;52.562;13.414;2023-05-14T06:54:32;8.53;;;5.10;;
44588;SDS011;30298;52.562;13.414;2023-05-14T06:57:17;7.68;;;4.65;;
44588;SDS011;30298;52.562;13.414;2023-05-14T06:59:43;7.00;;;4.67;;
44588;SDS011;30298;52.562;13.414;2023-05-14T07:02:08;6.73;;;4.90;;
44588;SDS011;30298;52.562;13.414;2023-05-14T07:04:33;9.03;;;4.87;;
44588;SDS011;30298;52.562;13.414;2023-05-14T07:07:05;6.18;;;4.63;;
44588;SDS011;30298;52.562;13.414;2023-05-14T07:09:31;8.02;;;4.47;;
44588;SDS011;30298;52.562;13.414;2023-05-14T07:11:56;6.80;;;4.80;;
44588;SDS011;30298;52.562;13.414;2023-05-14T07:14:21;7.00;;;4.30;;
44588;SDS011;30298;52.562;13.414;2023-05-14T07:16:49;6.13;;;4.53;;
44588;SDS011;30298;52.562;13.414;2023-05-14T07:19:15;8.18;;;4.60;;
44588;SDS011;30298;52.562;13.414;2023-05-14T07:21:40;6.70;;;4.67;;
44588;SDS011;30298;52.562;13.414;2023-05-14T07:24:08;11.03;;;4.17;;
44588;SDS011;30298;52.562;13.414;2023-05-14T07:26:33;8.80;;;4.90;;
44588;SDS011;30298;52.562;13.414;2023-05-14T07:28:59;6.85;;;4.18;;
44588;SDS011;30298;52.562;13.414;2023-05-14T07:31:24;6.90;;;4.20;;
44588;SDS011;30298;52.562;13.414;2023-05-14T07:33:49;8.75;;;5.60;;
44588;SDS011;30298;52.562;13.414;2023-05-14T07:36:20;10.55;;;4.70;;
44588;SDS011;30298;52.562;13.414;2023-05-14T07:38:46;6.90;;;4.10;;
44588;SDS011;30298;52.562;13.414;2023-05-14T07:41:11;5.60;;;4.37;;
44588;SDS011;30298;52.562;13.414;2023-05-14T07:43:36;6.43;;;4.40;;
44588;SDS011;30298;52.562;13.414;2023-05-14T07:48:28;10.40;;;4.40;;
44588;SDS011;30298;52.562;13.414;2023-05-14T07:50:53;6.97;;;4.45;;
44588;SDS011;30298;52.562;13.414;2023-05-14T07:53:18;9.07;;;4.70;;
44588;SDS011;30298;52.562;13.414;2023-05-14T07:55:44;8.35;;;5.38;;
44588;SDS011;30298;52.562;13.414;2023-05-14T07:58:12;6.25;;;3.95;;
44588;SDS011;30298;52.562;13.414;2023-05-14T08:00:37;6.82;;;4.38;;
44588;SDS011;30298;52.562;13.414;2023-05-14T08:03:03;5.32;;;4.22;;
44588;SDS011;30298;52.562;13.414;2023-05-14T08:07:54;11.25;;;4.60;;
44588;SDS011;30298;52.562;13.414;2023-05-14T08:10:19;8.25;;;4.72;;
44588;SDS011;30298;52.562;13.414;2023-05-14T08:12:45;5.95;;;4.50;;
44588;SDS011;30298;52.562;13.414;2023-05-14T08:15:10;5.87;;;4.77;;
44588;SDS011;30298;52.562;13.414;2023-05-14T08:17:36;8.30;;;3.78;;
44588;SDS011;30298;52.562;13.414;2023-05-14T08:20:01;6.10;;;4.10;;
44588;SDS011;30298;52.562;13.414;2023-05-14T08:22:27;5.28;;;3.65;;
44588;SDS011;30298;52.562;13.414;2023-05-14T08:24:52;7.00;;;3.87;;
44588;SDS011;30298;52.562;13.414;2023-05-14T08:27:17;4.88;;;3.53;;
44588;SDS011;30298;52.562;13.414;2023-05-14T08:29:43;5.87;;;4.00;;
44588;SDS011;30298;52.562;13.414;2023-05-14T08:32:08;7.88;;;3.95;;
44588;SDS011;30298;52.562;13.414;2023-05-14T08:34:33;6.53;;;3.60;;
44588;SDS011;30298;52.562;13.414;2023-05-14T08:36:58;6.30;;;4.23;;
44588;SDS011;30298;52.562;13.414;2023-05-14T08:39:24;7.13;;;3.83;;
44588;SDS011;30298;52.562;13.414;2023-05-14T08:44:17;7.55;;;3.83;;
44588;SDS011;30298;52.562;13.414;2023-05-14T08:46:44;6.60;;;4.35;;
44588;SDS011;30298;52.562;13.414;2023-05-14T08:51:38;7.03;;;3.88;;
44588;SDS011;30298;52.562;13.414;2023-05-14T08:54:04;6.20;;;4.00;;
44588;SDS011;30298;52.562;13.414;2023-05-14T08:58:55;7.90;;;4.30;;
44588;SDS011;30298;52.562;13.414;2023-05-14T09:01:20;7.97;;;4.57;;
44588;SDS011;30298;52.562;13.414;2023-05-14T09:03:46;12.38;;;3.72;;
44588;SDS011;30298;52.562;13.414;2023-05-14T09:08:37;3.97;;;3.30;;
44588;SDS011;30298;52.562;13.414;2023-05-14T09:13:27;7.10;;;3.90;;
44588;SDS011;30298;52.562;13.414;2023-05-14T09:18:18;7.70;;;3.80;;
44588;SDS011;30298;52.562;13.414;2023-05-14T09:23:08;6.03;;;3.70;;
44588;SDS011;30298;52.562;13.414;2023-05-14T09:27:59;6.90;;;3.85;;
44588;SDS011;30298;52.562;13.414;2023-05-14T09:30:29;9.20;;;4.35;;
44588;SDS011;30298;52.562;13.414;2023-05-14T09:35:21;6.53;;;4.13;;
44588;SDS011;30298;52.562;13.414;2023-05-14T09:37:47;7.50;;;3.92;;
44588;SDS011;30298;52.562;13.414;2023-05-14T09:40:13;8.35;;;3.78;;
44588;SDS011;30298;52.562;13.414;2023-05-14T09:45:05;6.03;;;3.53;;
44588;SDS011;30298;52.562;13.414;2023-05-14T09:47:31;7.40;;;3.38;;
44588;SDS011;30298;52.562;13.414;2023-05-14T09:52:24;6.45;;;4.30;;
44588;SDS011;30298;52.562;13.414;2023-05-14T09:54:53;6.45;;;3.88;;
44588;SDS011;30298;52.562;13.414;2023-05-14T09:57:19;6.50;;;3.33;;
44588;SDS011;30298;52.562;13.414;2023-05-14T10:02:15;5.70;;;3.53;;
44588;SDS011;30298;52.562;13.414;2023-05-14T10:04:40;5.88;;;3.60;;
44588;SDS011;30298;52.562;13.414;2023-05-14T10:09:30;4.68;;;3.45;;
44588;SDS011;30298;52.562;13.414;2023-05-14T10:14:54;9.30;;;4.07;;
44588;SDS011;30298;52.562;13.414;2023-05-14T10:17:18;5.30;;;3.70;;
44588;SDS011;30298;52.562;13.414;2023-05-14T10:19:46;6.32;;;3.97;;
44588;SDS011;30298;52.562;13.414;2023-05-14T10:22:14;6.45;;;3.35;;
44588;SDS011;30298;52.562;13.414;2023-05-14T10:24:42;4.55;;;3.47;;
44588;SDS011;30298;52.562;13.414;2023-05-14T10:29:33;6.30;;;3.70;;
44588;SDS011;30298;52.562;13.414;2023-05-14T10:32:00;8.13;;;3.67;;
44588;SDS011;30298;52.562;13.414;2023-05-14T10:34:37;5.47;;;3.05;;
44588;SDS011;30298;52.562;13.414;2023-05-14T10:37:11;6.90;;;3.38;;
44588;SDS011;30298;52.562;13.414;2023-05-14T10:39:45;7.40;;;3.30;;
44588;SDS011;30298;52.562;13.414;2023-05-14T10:42:11;7.80;;;3.25;;
44588;SDS011;30298;52.562;13.414;2023-05-14T10:44:40;5.50;;;3.55;;
44588;SDS011;30298;52.562;13.414;2023-05-14T10:47:06;7.75;;;3.72;;
44588;SDS011;30298;52.562;13.414;2023-05-14T10:51:57;10.00;;;3.70;;
44588;SDS011;30298;52.562;13.414;2023-05-14T10:56:48;6.68;;;3.70;;
44588;SDS011;30298;52.562;13.414;2023-05-14T11:01:39;6.43;;;3.90;;
44588;SDS011;30298;52.562;13.414;2023-05-14T11:06:30;7.22;;;3.88;;
44588;SDS011;30298;52.562;13.414;2023-05-14T11:11:21;5.25;;;3.67;;
44588;SDS011;30298;52.562;13.414;2023-05-14T11:13:48;8.30;;;4.03;;
44588;SDS011;30298;52.562;13.414;2023-05-14T11:16:14;5.40;;;3.70;;
44588;SDS011;30298;52.562;13.414;2023-05-14T11:18:42;6.63;;;4.05;;
44588;SDS011;30298;52.562;13.414;2023-05-14T11:23:33;6.55;;;4.18;;
44588;SDS011;30298;52.562;13.414;2023-05-14T11:28:24;8.03;;;4.43;;
44588;SDS011;30298;52.562;13.414;2023-05-14T11:30:50;5.90;;;3.60;;
44588;SDS011;30298;52.562;13.414;2023-05-14T11:35:41;8.52;;;4.38;;
44588;SDS011;30298;52.562;13.414;2023-05-14T11:38:18;6.68;;;3.75;;
44588;SDS011;30298;52.562;13.414;2023-05-14T11:40:57;7.95;;;3.78;;
44588;SDS011;30298;52.562;13.414;2023-05-14T11:43:23;5.05;;;3.70;;
44588;SDS011;30298;52.562;13.414;2023-05-14T11:48:15;6.63;;;3.80;;
44588;SDS011;30298;52.562;13.414;2023-05-14T11:53:05;6.28;;;3.60;;
44588;SDS011;30298;52.562;13.414;2023-05-14T11:57:56;5.23;;;3.77;;
44588;SDS011;30298;52.562;13.414;2023-05-14T12:00:21;4.47;;;3.70;;
44588;SDS011;30298;52.562;13.414;2023-05-14T12:02:48;6.85;;;3.58;;
44588;SDS011;30298;52.562;13.414;2023-05-14T12:07:38;6.47;;;3.70;;
44588;SDS011;30298;52.562;13.414;2023-05-14T12:12:33;8.52;;;3.85;;
44588;SDS011;30298;52.562;13.414;2023-05-14T12:14:59;4.75;;;4.03;;
44588;SDS011;30298;52.562;13.414;2023-05-14T12:19:50;6.07;;;3.80;;
44588;SDS011;30298;52.562;13.414;2023-05-14T12:22:16;8.82;;;3.80;;
44588;SDS011;30298;52.562;13.414;2023-05-14T12:24:42;6.88;;;3.70;;
44588;SDS011;30298;52.562;13.414;2023-05-14T12:29:38;8.30;;;4.07;;
44588;SDS011;30298;52.562;13.414;2023-05-14T12:32:13;7.45;;;3.90;;
44588;SDS011;30298;52.562;13.414;2023-05-14T12:34:38;8.10;;;3.97;;
44588;SDS011;30298;52.562;13.414;2023-05-14T12:39:31;7.00;;;3.92;;
44588;SDS011;30298;52.562;13.414;2023-05-14T12:41:56;9.43;;;4.28;;
44588;SDS011;30298;52.562;13.414;2023-05-14T12:46:46;6.77;;;3.83;;
44588;SDS011;30298;52.562;13.414;2023-05-14T12:51:37;5.95;;;3.47;;
44588;SDS011;30298;52.562;13.414;2023-05-14T12:56:27;5.50;;;3.70;;
44588;SDS011;30298;52.562;13.414;2023-05-14T12:58:54;6.53;;;3.67;;
44588;SDS011;30298;52.562;13.414;2023-05-14T13:03:45;6.88;;;3.67;;
44588;SDS011;30298;52.562;13.414;2023-05-14T13:08:36;6.97;;;3.77;;
44588;SDS011;30298;52.562;13.414;2023-05-14T13:11:01;5.88;;;3.75;;
44588;SDS011;30298;52.562;13.414;2023-05-14T13:13:26;7.63;;;3.67;;
44588;SDS011;30298;52.562;13.414;2023-05-14T13:15:52;6.43;;;4.20;;
44588;SDS011;30298;52.562;13.414;2023-05-14T13:20:43;8.23;;;3.80;;
44588;SDS011;30298;52.562;13.414;2023-05-14T13:23:09;7.80;;;3.40;;
44588;SDS011;30298;52.562;13.414;2023-05-14T13:27:59;5.45;;;2.90;;
44588;SDS011;30298;52.562;13.414;2023-05-14T13:32:50;9.70;;;4.15;;
44588;SDS011;30298;52.562;13.414;2023-05-14T13:37:43;8.87;;;3.90;;
44588;SDS011;30298;52.562;13.414;2023-05-14T13:40:09;5.22;;;3.92;;
44588;SDS011;30298;52.562;13.414;2023-05-14T13:45:00;8.35;;;3.80;;
44588;SDS011;30298;52.562;13.414;2023-05-14T13:49:51;5.23;;;3.47;;
44588;SDS011;30298;52.562;13.414;2023-05-14T13:54:41;4.13;;;3.20;;
44588;SDS011;30298;52.562;13.414;2023-05-14T13:59:32;5.57;;;3.50;;
44588;SDS011;30298;52.562;13.414;2023-05-14T14:04:22;6.57;;;3.50;;
44588;SDS011;30298;52.562;13.414;2023-05-14T14:06:49;5.82;;;3.30;;
44588;SDS011;30298;52.562;13.414;2023-05-14T14:11:40;6.07;;;3.47;;
44588;SDS011;30298;52.562;13.414;2023-05-14T14:16:30;5.10;;;3.30;;
44588;SDS011;30298;52.562;13.414;2023-05-14T14:21:21;5.75;;;3.25;;
44588;SDS011;30298;52.562;13.414;2023-05-14T14:26:12;5.00;;;3.13;;
44588;SDS011;30298;52.562;13.414;2023-05-14T14:31:02;4.38;;;3.60;;
44588;SDS011;30298;52.562;13.414;2023-05-14T14:35:53;5.22;;;3.78;;
44588;SDS011;30298;52.562;13.414;2023-05-14T14:40:43;5.83;;;3.10;;
44588;SDS011;30298;52.562;13.414;2023-05-14T14:43:10;7.75;;;4.95;;
44588;SDS011;30298;52.562;13.414;2023-05-14T14:50:44;4.60;;;3.20;;
44588;SDS011;30298;52.562;13.414;2023-05-14T14:55:34;6.45;;;3.30;;
44588;SDS011;30298;52.562;13.414;2023-05-14T14:58:00;8.37;;;4.37;;
44588;SDS011;30298;52.562;13.414;2023-05-14T15:02:50;6.10;;;3.40;;
44588;SDS011;30298;52.562;13.414;2023-05-14T15:07:40;5.55;;;3.50;;
44588;SDS011;30298;52.562;13.414;2023-05-14T15:12:31;11.23;;;4.20;;
44588;SDS011;30298;52.562;13.414;2023-05-14T15:17:21;5.28;;;3.83;;
44588;SDS011;30298;52.562;13.414;2023-05-14T15:22:12;13.05;;;4.50;;
44588;SDS011;30298;52.562;13.414;2023-05-14T15:29:30;7.05;;;4.28;;
44588;SDS011;30298;52.562;13.414;2023-05-14T15:34:21;6.50;;;4.03;;
44588;SDS011;30298;52.562;13.414;2023-05-14T15:39:11;6.73;;;3.57;;
44588;SDS011;30298;52.562;13.414;2023-05-14T15:41:37;4.65;;;3.80;;
44588;SDS011;30298;52.562;13.414;2023-05-14T15:46:27;9.75;;;3.58;;
44588;SDS011;30298;52.562;13.414;2023-05-14T15:51:18;14.18;;;4.20;;
44588;SDS011;30298;52.562;13.414;2023-05-14T15:56:08;6.93;;;3.67;;
44588;SDS011;30298;52.562;13.414;2023-05-14T16:00:59;6.73;;;3.97;;
44588;SDS011;30298;52.562;13.414;2023-05-14T16:03:24;6.22;;;3.65;;
44588;SDS011;30298;52.562;13.414;2023-05-14T16:08:14;6.53;;;4.10;;
44588;SDS011;30298;52.562;13.414;2023-05-14T16:13:08;5.95;;;3.90;;
44588;SDS011;30298;52.562;13.414;2023-05-14T16:15:33;8.07;;;3.53;;
44588;SDS011;30298;52.562;13.414;2023-05-14T16:20:24;7.72;;;3.70;;
44588;SDS011;30298;52.562;13.414;2023-05-14T16:25:14;9.40;;;5.20;;
44588;SDS011;30298;52.562;13.414;2023-05-14T16:27:42;4.80;;;3.88;;
44588;SDS011;30298;52.562;13.414;2023-05-14T16:32:33;8.53;;;4.50;;
44588;SDS011;30298;52.562;13.414;2023-05-14T16:34:58;8.15;;;3.95;;
44588;SDS011;30298;52.562;13.414;2023-05-14T16:37:25;5.97;;;4.10;;
44588;SDS011;30298;52.562;13.414;2023-05-14T16:42:16;6.70;;;3.97;;
44588;SDS011;30298;52.562;13.414;2023-05-14T16:44:41;6.28;;;3.80;;
44588;SDS011;30298;52.562;13.414;2023-05-14T16:47:06;7.40;;;3.70;;
44588;SDS011;30298;52.562;13.414;2023-05-14T16:49:32;7.20;;;3.85;;
44588;SDS011;30298;52.562;13.414;2023-05-14T16:52:00;6.00;;;4.05;;
44588;SDS011;30298;52.562;13.414;2023-05-14T16:56:50;6.10;;;3.80;;
44588;SDS011;30298;52.562;13.414;2023-05-14T17:01:41;7.03;;;4.30;;
44588;SDS011;30298;52.562;13.414;2023-05-14T17:06:32;7.63;;;4.40;;
44588;SDS011;30298;52.562;13.414;2023-05-14T17:11:22;6.50;;;4.78;;
44588;SDS011;30298;52.562;13.414;2023-05-14T17:16:13;9.23;;;4.45;;
44588;SDS011;30298;52.562;13.414;2023-05-14T17:18:38;6.20;;;4.60;;
44588;SDS011;30298;52.562;13.414;2023-05-14T17:21:04;9.35;;;5.07;;
44588;SDS011;30298;52.562;13.414;2023-05-14T17:23:31;6.55;;;4.65;;
44588;SDS011;30298;52.562;13.414;2023-05-14T17:25:56;6.20;;;4.28;;
44588;SDS011;30298;52.562;13.414;2023-05-14T17:28:22;5.13;;;3.93;;
44588;SDS011;30298;52.562;13.414;2023-05-14T17:30:48;7.85;;;4.10;;
44588;SDS011;30298;52.562;13.414;2023-05-14T17:33:13;6.30;;;4.35;;
44588;SDS011;30298;52.562;13.414;2023-05-14T17:35:39;6.50;;;4.28;;
44588;SDS011;30298;52.562;13.414;2023-05-14T17:40:29;6.00;;;4.80;;
44588;SDS011;30298;52.562;13.414;2023-05-14T17:42:55;9.80;;;5.22;;
44588;SDS011;30298;52.562;13.414;2023-05-14T17:45:20;8.35;;;5.20;;
44588;SDS011;30298;52.562;13.414;2023-05-14T17:47:45;6.37;;;4.67;;
44588;SDS011;30298;52.562;13.414;2023-05-14T17:50:11;9.13;;;5.65;;
44588;SDS011;30298;52.562;13.414;2023-05-14T17:52:36;7.55;;;4.93;;
44588;SDS011;30298;52.562;13.414;2023-05-14T17:55:02;7.45;;;4.97;;